Time;durP1;ratioP1;P1;durP2;ratioP2;P2;SDS_P1;SDS_P2;PMS_P1;PMS_P2;Temp;Humidity;BMP_temperature;BMP_pressure;BME280_temperature;BME280_humidity;BME280_pressure;Samples;Min_cycle;Max_cycle;Signal;HPM_P1;HPM_P2
2022/01/04 00:01:20;;;;;;;0.50;0.50;;;8.10;99.90;;;;;;5113914;28;20130;-83
2022/01/04 00:03:46;;;;;;;0.88;0.80;;;8.10;99.90;;;;;;5114074;28;20031;-83
2022/01/04 00:06:12;;;;;;;0.50;0.50;;;8.10;99.90;;;;;;5096949;28;20054;-83
2022/01/04 00:08:38;;;;;;;0.50;0.50;;;8.10;99.90;;;;;;5114675;28;20047;-83
2022/01/04 00:11:14;;;;;;;0.50;0.50;;;8.70;99.90;;;;;;5114837;28;20116;-83
2022/01/04 00:13:40;;;;;;;0.50;0.50;;;8.20;99.90;;;;;;5098534;28;20047;-83
2022/01/04 00:16:07;;;;;;;0.90;0.90;;;8.20;99.90;;;;;;5096837;28;20479;-83
2022/01/04 00:18:33;;;;;;;0.40;0.40;;;8.20;99.90;;;;;;5113530;28;20517;-83
2022/01/04 00:20:59;;;;;;;0.50;0.50;;;8.50;99.90;;;;;;5114685;28;20043;-83
2022/01/04 00:23:24;;;;;;;0.50;0.50;;;8.20;99.90;;;;;;5114094;28;20040;-83
2022/01/04 00:25:50;;;;;;;0.50;0.50;;;8.20;99.90;;;;;;5113785;28;20088;-83
2022/01/04 00:28:16;;;;;;;0.52;0.52;;;8.20;99.90;;;;;;5113399;28;20387;-83
2022/01/04 00:30:42;;;;;;;0.50;0.50;;;8.20;99.90;;;;;;5113336;28;20079;-83
2022/01/04 00:33:10;;;;;;;0.73;0.73;;;8.20;99.90;;;;;;5113786;28;20039;-83
2022/01/04 00:35:36;;;;;;;0.50;0.50;;;8.10;99.90;;;;;;5113497;28;20082;-83
2022/01/04 00:38:02;;;;;;;0.57;0.57;;;8.10;99.90;;;;;;5114280;28;20036;-83
2022/01/04 00:40:27;;;;;;;2.78;2.58;;;8.10;99.90;;;;;;5113815;28;20084;-83
2022/01/04 00:42:58;;;;;;;0.50;0.50;;;8.20;99.90;;;;;;5113866;28;20492;-83
2022/01/04 00:45:24;;;;;;;0.50;0.50;;;8.10;99.90;;;;;;5113442;28;20040;-82
2022/01/04 00:50:25;;;;;;;0.60;0.60;;;8.10;99.90;;;;;;5114210;28;20138;-82
2022/01/04 00:52:51;;;;;;;0.50;0.50;;;8.20;99.90;;;;;;5112714;28;20500;-83
2022/01/04 00:55:17;;;;;;;0.50;0.50;;;8.10;99.90;;;;;;5113561;28;20050;-83
2022/01/04 00:57:43;;;;;;;1.58;1.10;;;8.20;99.90;;;;;;5114193;28;20035;-83
2022/01/04 01:00:12;;;;;;;0.50;0.50;;;8.20;99.90;;;;;;5113230;28;20046;-83
2022/01/04 01:02:37;;;;;;;0.65;0.60;;;8.20;99.90;;;;;;5113165;28;20130;-83
2022/01/04 01:05:04;;;;;;;0.50;0.50;;;8.20;99.90;;;;;;5116200;28;20147;-83
2022/01/04 01:07:30;;;;;;;0.50;0.50;;;8.20;99.90;;;;;;5117327;28;20040;-83
2022/01/04 01:12:21;;;;;;;0.50;0.50;;;8.20;99.90;;;;;;5083608;28;20047;-83
2022/01/04 01:14:46;;;;;;;1.13;1.10;;;8.60;99.90;;;;;;5117355;28;20478;-83
2022/01/04 01:17:12;;;;;;;0.60;0.60;;;8.20;99.90;;;;;;5118441;28;20039;-83
2022/01/04 01:19:37;;;;;;;1.48;0.50;;;8.20;99.90;;;;;;5117185;28;20479;-83
2022/01/04 01:22:04;;;;;;;0.50;0.50;;;8.20;99.90;;;;;;5100463;28;20126;-83
2022/01/04 01:24:29;;;;;;;0.50;0.50;;;8.20;99.90;;;;;;5117143;28;20040;-83
2022/01/04 01:26:55;;;;;;;0.60;0.60;;;8.20;99.90;;;;;;5117148;28;20097;-83
2022/01/04 01:29:20;;;;;;;0.60;0.60;;;8.20;99.90;;;;;;5118217;28;20509;-83
2022/01/04 01:31:46;;;;;;;0.50;0.50;;;8.30;99.90;;;;;;5116780;28;20389;-83
2022/01/04 01:34:11;;;;;;;0.90;0.60;;;8.10;99.90;;;;;;5099854;28;20051;-83
2022/01/04 01:36:37;;;;;;;1.85;1.75;;;8.10;99.90;;;;;;5099921;28;20039;-82
2022/01/04 01:39:03;;;;;;;0.50;0.50;;;8.10;99.90;;;;;;5116620;28;20064;-83
2022/01/04 01:41:29;;;;;;;0.57;0.57;;;8.10;99.90;;;;;;5116888;28;20514;-83
2022/01/04 01:43:55;;;;;;;0.50;0.50;;;8.10;99.90;;;;;;5117714;28;20044;-83
2022/01/04 01:46:21;;;;;;;0.55;0.55;;;8.10;99.90;;;;;;5117469;28;20039;-83
2022/01/04 01:48:46;;;;;;;0.50;0.50;;;8.10;99.90;;;;;;5117578;28;20062;-83
2022/01/04 01:51:16;;;;;;;0.60;0.60;;;8.30;99.90;;;;;;5099916;28;20043;-83
2022/01/04 01:53:42;;;;;;;0.50;0.50;;;8.10;99.90;;;;;;5116189;28;20398;-83
2022/01/04 01:56:07;;;;;;;0.60;0.60;;;8.10;99.90;;;;;;5099536;28;20048;-83
2022/01/04 01:58:33;;;;;;;0.50;0.50;;;8.10;99.90;;;;;;5117347;28;20369;-83
2022/01/04 02:00:58;;;;;;;0.82;0.82;;;8.00;99.90;;;;;;5117395;28;20480;-83
2022/01/04 02:03:24;;;;;;;0.70;0.70;;;8.00;99.90;;;;;;5099415;28;20044;-83
2022/01/04 02:05:51;;;;;;;1.55;1.30;;;8.00;99.90;;;;;;5116042;28;20047;-83
2022/01/04 02:08:18;;;;;;;0.60;0.60;;;7.90;99.90;;;;;;5116160;28;20086;-83
2022/01/04 02:10:45;;;;;;;0.52;0.52;;;7.90;99.90;;;;;;5116980;28;20047;-83
2022/01/04 02:13:11;;;;;;;2.92;2.00;;;7.90;99.90;;;;;;5116885;28;20073;-83
2022/01/04 02:15:36;;;;;;;0.93;0.93;;;7.90;99.90;;;;;;5116560;28;20364;-83
2022/01/04 02:18:02;;;;;;;0.93;0.93;;;7.80;99.90;;;;;;5115767;28;20153;-83
2022/01/04 02:20:28;;;;;;;0.50;0.50;;;7.80;99.90;;;;;;5116808;28;20083;-83
2022/01/04 02:22:55;;;;;;;0.50;0.50;;;7.80;99.90;;;;;;5116007;28;20040;-83
2022/01/04 02:25:21;;;;;;;0.70;0.70;;;7.80;99.90;;;;;;5116259;28;20070;-83
2022/01/04 02:27:47;;;;;;;4.90;2.60;;;7.70;99.90;;;;;;5099181;28;20395;-83
2022/01/04 02:30:15;;;;;;;0.50;0.50;;;7.60;99.90;;;;;;5117010;28;20044;-83
2022/01/04 02:32:42;;;;;;;0.70;0.70;;;7.60;99.90;;;;;;5115800;28;20407;-83
2022/01/04 02:35:09;;;;;;;0.50;0.50;;;7.60;99.90;;;;;;5116406;27;20047;-83
2022/01/04 02:37:35;;;;;;;2.10;1.98;;;7.60;99.90;;;;;;5098471;28;20047;-83
2022/01/04 02:40:01;;;;;;;0.60;0.60;;;7.50;99.90;;;;;;5115703;28;20047;-83
2022/01/04 02:42:27;;;;;;;0.50;0.50;;;7.50;99.90;;;;;;5098771;28;20043;-83
2022/01/04 02:44:52;;;;;;;0.73;0.73;;;7.40;99.90;;;;;;5116545;28;20047;-83
2022/01/04 02:47:18;;;;;;;0.70;0.70;;;7.80;99.90;;;;;;5115577;28;20040;-83
2022/01/04 02:49:45;;;;;;;3.67;1.80;;;7.40;99.90;;;;;;5115175;28;20055;-83
2022/01/04 02:52:11;;;;;;;;;;;7.30;99.90;;;;;;5098739;28;20516;-83
2022/01/04 02:54:37;;;;;;;0.60;0.60;;;7.30;99.90;;;;;;5116414;28;19920;-83
2022/01/04 02:57:03;;;;;;;2.05;1.75;;;7.30;99.90;;;;;;5115080;28;20380;-83
2022/01/04 02:59:28;;;;;;;0.50;0.50;;;7.30;99.90;;;;;;5115360;28;20095;-83
2022/01/04 03:01:54;;;;;;;0.83;0.70;;;7.30;99.90;;;;;;5116185;28;20391;-83
2022/01/04 03:04:22;;;;;;;7.38;2.28;;;7.70;99.90;;;;;;5098199;28;20047;-83
2022/01/04 03:06:48;;;;;;;0.60;0.60;;;7.30;99.90;;;;;;5116085;28;20089;-83
2022/01/04 03:09:15;;;;;;;0.50;0.50;;;7.30;99.90;;;;;;5080960;28;20043;-83
2022/01/04 03:11:40;;;;;;;1.05;0.95;;;7.20;99.90;;;;;;5114949;28;20411;-83
2022/01/04 03:14:06;;;;;;;0.73;0.73;;;7.20;99.90;;;;;;5114911;28;20035;-82
2022/01/04 03:16:32;;;;;;;0.70;0.70;;;7.50;99.90;;;;;;5115123;28;20047;-82
2022/01/04 03:21:25;;;;;;;0.88;0.85;;;7.20;99.90;;;;;;5115795;28;20044;-83
2022/01/04 03:23:51;;;;;;;0.75;0.75;;;7.20;99.90;;;;;;5114789;28;20475;-83
2022/01/04 03:26:17;;;;;;;0.50;0.50;;;7.20;99.90;;;;;;5115507;28;20073;-83
2022/01/04 03:28:42;;;;;;;2.53;2.33;;;7.20;99.90;;;;;;5115391;28;20039;-83
2022/01/04 03:31:08;;;;;;;1.65;0.82;;;7.10;99.90;;;;;;5114431;28;20047;-83
2022/01/04 03:33:35;;;;;;;0.50;0.50;;;7.40;99.90;;;;;;5114237;28;20126;-83
2022/01/04 03:36:02;;;;;;;0.60;0.60;;;7.20;99.90;;;;;;5114766;28;20044;-83
2022/01/04 03:38:27;;;;;;;0.50;0.50;;;7.20;99.90;;;;;;5114687;28;20127;-83
2022/01/04 03:40:54;;;;;;;6.03;1.95;;;7.20;99.90;;;;;;5114502;28;20085;-83
2022/01/04 03:43:21;;;;;;;0.50;0.50;;;7.70;99.90;;;;;;5114210;28;20042;-83
2022/01/04 03:45:47;;;;;;;0.50;0.50;;;7.30;99.90;;;;;;5080696;28;20051;-83
2022/01/04 03:48:12;;;;;;;0.60;0.60;;;7.30;99.90;;;;;;5114034;28;20490;-83
2022/01/04 03:50:39;;;;;;;0.60;0.60;;;7.40;99.90;;;;;;5097382;28;20567;-83
2022/01/04 03:53:04;;;;;;;0.60;0.60;;;7.40;99.90;;;;;;5113729;28;20104;-83
2022/01/04 03:55:30;;;;;;;0.60;0.60;;;7.40;99.90;;;;;;5097350;28;20055;-83
2022/01/04 03:57:56;;;;;;;0.80;0.80;;;7.50;99.90;;;;;;5114197;28;20040;-83
2022/01/04 04:00:21;;;;;;;7.57;5.47;;;7.50;99.90;;;;;;5115099;28;20079;-83
2022/01/04 04:02:47;;;;;;;0.60;0.60;;;7.50;99.90;;;;;;5115015;28;20043;-83
2022/01/04 04:05:13;;;;;;;1.75;1.25;;;7.50;99.90;;;;;;5114973;28;20126;-83
2022/01/04 04:07:38;;;;;;;1.50;1.40;;;7.50;99.90;;;;;;5114882;28;20096;-83
2022/01/04 04:10:05;;;;;;;18.58;2.80;;;7.60;99.90;;;;;;5114890;28;20090;-83
2022/01/04 04:12:30;;;;;;;0.60;0.60;;;7.60;99.90;;;;;;5114897;28;20086;-83
2022/01/04 04:14:58;;;;;;;1.02;0.60;;;7.60;99.90;;;;;;5097098;28;20083;-83
2022/01/04 04:17:24;;;;;;;0.70;0.70;;;7.60;99.90;;;;;;5080268;28;20502;-83
2022/01/04 04:19:50;;;;;;;3.10;2.47;;;7.60;99.90;;;;;;5114791;28;20073;-83
2022/01/04 04:22:15;;;;;;;0.70;0.70;;;7.60;99.90;;;;;;5096583;28;20085;-83
2022/01/04 04:24:41;;;;;;;0.63;0.63;;;7.70;99.90;;;;;;5096870;28;20047;-83
2022/01/04 04:27:07;;;;;;;0.82;0.82;;;7.70;99.90;;;;;;5113620;28;20403;-83
2022/01/04 04:29:33;;;;;;;0.50;0.50;;;7.70;99.90;;;;;;5114690;28;20122;-83
2022/01/04 04:31:58;;;;;;;1.77;1.67;;;7.70;99.90;;;;;;5113559;28;20050;-83
2022/01/04 04:34:24;;;;;;;0.50;0.50;;;7.70;99.90;;;;;;5114835;28;20039;-83
2022/01/04 04:36:50;;;;;;;0.50;0.50;;;7.80;99.90;;;;;;5113309;28;20092;-83
2022/01/04 04:39:15;;;;;;;0.73;0.73;;;7.70;99.90;;;;;;5114155;28;20418;-83
2022/01/04 04:41:41;;;;;;;0.70;0.70;;;7.70;99.90;;;;;;5096777;28;20043;-83
2022/01/04 04:44:06;;;;;;;0.70;0.70;;;7.70;99.90;;;;;;5096557;28;20434;-83
2022/01/04 04:46:32;;;;;;;0.50;0.50;;;7.70;99.90;;;;;;5113090;28;20043;-83
2022/01/04 04:48:59;;;;;;;0.60;0.60;;;7.70;99.90;;;;;;5113045;28;20039;-83
2022/01/04 04:51:26;;;;;;;0.50;0.50;;;7.70;99.90;;;;;;5096283;28;20043;-83
2022/01/04 04:53:52;;;;;;;0.50;0.50;;;7.70;99.90;;;;;;5112858;28;20090;-83
2022/01/04 04:56:17;;;;;;;0.60;0.60;;;7.70;99.90;;;;;;5113686;28;20039;-83
2022/01/04 04:58:43;;;;;;;0.68;0.68;;;7.70;99.90;;;;;;5114213;28;20164;-83
2022/01/04 05:01:09;;;;;;;0.80;0.80;;;7.70;99.90;;;;;;5114535;28;20039;-81
2022/01/04 05:03:34;;;;;;;1.38;1.13;;;7.60;99.90;;;;;;5118696;28;20043;-83
2022/01/04 05:06:00;;;;;;;1.15;1.05;;;7.70;99.90;;;;;;5114814;28;20054;-83
2022/01/04 05:08:25;;;;;;;1.40;1.30;;;7.70;99.90;;;;;;5114066;28;20050;-83
2022/01/04 05:10:51;;;;;;;0.57;0.57;;;8.40;99.90;;;;;;5114672;28;20043;-84
2022/01/04 05:13:16;;;;;;;0.77;0.70;;;7.70;99.90;;;;;;5096301;28;20043;-83
2022/01/04 05:15:42;;;;;;;1.52;1.42;;;7.70;99.90;;;;;;5114087;28;20075;-83
2022/01/04 05:18:11;;;;;;;0.80;0.80;;;7.80;99.90;;;;;;5113948;28;20044;-83
2022/01/04 05:20:36;;;;;;;0.70;0.70;;;7.70;99.90;;;;;;5096090;28;20062;-83
2022/01/04 05:23:02;;;;;;;0.50;0.50;;;7.70;99.90;;;;;;5096041;28;20035;-83
2022/01/04 05:25:27;;;;;;;1.17;1.10;;;7.80;99.90;;;;;;5113141;28;20445;-83
2022/01/04 05:27:53;;;;;;;0.95;0.70;;;7.70;99.90;;;;;;5113743;28;20032;-83
2022/01/04 05:30:18;;;;;;;0.60;0.60;;;7.70;99.90;;;;;;5112712;28;20088;-83
2022/01/04 05:32:44;;;;;;;0.82;0.82;;;7.70;99.90;;;;;;5112607;28;20044;-83
2022/01/04 05:35:10;;;;;;;8.77;1.95;;;7.70;99.90;;;;;;5095762;28;20123;-83
2022/01/04 05:37:35;;;;;;;0.50;0.50;;;7.70;99.90;;;;;;5113012;28;20040;-84
2022/01/04 05:40:01;;;;;;;0.77;0.77;;;7.70;99.90;;;;;;5114097;28;20488;-83
2022/01/04 05:42:26;;;;;;;0.70;0.70;;;7.70;99.90;;;;;;5112586;28;20046;-83
2022/01/04 05:44:52;;;;;;;0.60;0.60;;;7.70;99.90;;;;;;5113700;28;20050;-83
2022/01/04 05:47:18;;;;;;;0.50;0.50;;;7.70;99.90;;;;;;5095408;28;20040;-83
2022/01/04 05:49:43;;;;;;;0.50;0.50;;;7.70;99.90;;;;;;5113728;28;20039;-83
2022/01/04 05:52:09;;;;;;;1.25;1.20;;;7.80;99.90;;;;;;5116093;28;20063;-83
2022/01/04 05:54:34;;;;;;;0.80;0.80;;;7.80;99.90;;;;;;5099841;28;20039;-83
2022/01/04 05:57:00;;;;;;;1.35;1.25;;;7.80;99.90;;;;;;5099449;28;20437;-82
2022/01/04 05:59:25;;;;;;;2.30;1.80;;;7.80;99.90;;;;;;5117446;28;20091;-82
2022/01/04 06:01:51;;;;;;;0.50;0.50;;;7.80;99.90;;;;;;5116243;28;20399;-83
2022/01/04 06:04:17;;;;;;;0.50;0.50;;;7.80;99.90;;;;;;5117078;28;20051;-83
2022/01/04 06:06:43;;;;;;;35.15;5.57;;;7.80;99.90;;;;;;5099867;28;20046;-83
2022/01/04 06:09:17;;;;;;;0.63;0.50;;;7.80;99.90;;;;;;5082116;28;20043;-83
2022/01/04 06:16:59;;;;;;;1.55;1.35;;;7.80;99.90;;;;;;5116079;28;20051;-85
2022/01/04 06:19:25;;;;;;;1.48;1.20;;;7.80;99.90;;;;;;5117108;28;20078;-77
2022/01/04 06:21:51;;;;;;;0.85;0.85;;;7.80;99.90;;;;;;5117026;28;20130;-78
2022/01/04 06:24:17;;;;;;;4.90;3.20;;;7.80;99.90;;;;;;5117000;28;20102;-80
2022/01/04 06:26:42;;;;;;;0.50;0.50;;;7.80;99.90;;;;;;5116995;28;20043;-79
2022/01/04 06:29:09;;;;;;;0.60;0.60;;;7.80;99.90;;;;;;5116244;28;20096;-80
2022/01/04 06:31:35;;;;;;;0.60;0.60;;;7.80;99.90;;;;;;5116588;28;20444;-80
2022/01/04 06:34:00;;;;;;;1.10;1.10;;;7.80;99.90;;;;;;5116776;28;20055;-79
2022/01/04 06:36:26;;;;;;;0.50;0.50;;;7.80;99.90;;;;;;5116736;28;20050;-80
2022/01/04 06:38:51;;;;;;;0.68;0.68;;;7.80;99.90;;;;;;5116483;28;20035;-80
2022/01/04 06:41:17;;;;;;;0.60;0.60;;;7.80;99.90;;;;;;5115464;28;20039;-80
2022/01/04 06:43:43;;;;;;;1.85;1.52;;;7.80;99.90;;;;;;5116598;28;20126;-81
2022/01/04 06:46:11;;;;;;;5.50;2.67;;;7.80;99.90;;;;;;5115507;28;20039;-80
2022/01/04 06:48:38;;;;;;;1.52;1.35;;;7.80;99.90;;;;;;5116449;28;20127;-80
2022/01/04 06:51:03;;;;;;;0.50;0.50;;;7.70;99.90;;;;;;5116544;28;20376;-80
2022/01/04 06:53:29;;;;;;;0.60;0.60;;;7.80;99.90;;;;;;5116525;28;20063;-79
2022/01/04 06:55:55;;;;;;;0.55;0.55;;;7.70;99.90;;;;;;5116473;28;20054;-80
2022/01/04 06:58:21;;;;;;;0.70;0.70;;;7.80;99.90;;;;;;5116232;28;20083;-81
2022/01/04 07:00:47;;;;;;;0.82;0.80;;;7.80;99.90;;;;;;5116324;28;20050;-80
2022/01/04 07:03:12;;;;;;;0.95;0.95;;;7.80;99.90;;;;;;5115745;28;20036;-74
2022/01/04 07:05:38;;;;;;;0.50;0.50;;;7.80;99.90;;;;;;5116142;28;20471;-81
2022/01/04 07:08:04;;;;;;;0.50;0.50;;;7.80;99.90;;;;;;5114936;28;20039;-81
2022/01/04 07:10:30;;;;;;;0.70;0.70;;;7.80;99.90;;;;;;5116239;28;20052;-80
2022/01/04 07:12:56;;;;;;;0.57;0.57;;;7.80;99.90;;;;;;5115905;28;20115;-81
2022/01/04 07:15:21;;;;;;;0.95;0.95;;;7.80;99.90;;;;;;5116038;28;20044;-79
2022/01/04 07:17:47;;;;;;;3.05;1.02;;;7.80;99.90;;;;;;5116375;28;20494;-81
2022/01/04 07:20:13;;;;;;;0.50;0.50;;;7.80;99.90;;;;;;5114696;28;20092;-82
2022/01/04 07:22:39;;;;;;;0.82;0.82;;;7.80;99.90;;;;;;5114706;28;20047;-80
2022/01/04 07:25:05;;;;;;;0.55;0.55;;;7.80;99.90;;;;;;5115832;28;20043;-84
2022/01/04 07:27:32;;;;;;;0.50;0.50;;;7.80;99.90;;;;;;5114675;28;20120;-82
2022/01/04 07:29:58;;;;;;;0.50;0.50;;;7.80;99.90;;;;;;5098440;28;20497;-84
2022/01/04 07:32:23;;;;;;;0.50;0.50;;;7.80;99.90;;;;;;5097531;28;20044;-83
2022/01/04 07:34:49;;;;;;;1.23;1.13;;;7.80;99.90;;;;;;5115655;28;20093;-85
2022/01/04 07:37:14;;;;;;;0.50;0.50;;;7.80;99.90;;;;;;5115489;28;20075;-83
2022/01/04 07:39:40;;;;;;;1.25;1.15;;;7.90;99.90;;;;;;5113907;28;20039;-83
2022/01/04 07:42:06;;;;;;;1.47;1.37;;;7.90;99.90;;;;;;5113898;28;20047;-79
2022/01/04 07:44:32;;;;;;;2.25;2.10;;;7.80;99.90;;;;;;5148682;27;20042;-78
2022/01/04 07:46:58;;;;;;;6.40;1.85;;;7.80;99.90;;;;;;5115844;28;20137;-79
2022/01/04 07:49:23;;;;;;;0.82;0.82;;;7.80;99.90;;;;;;5148119;27;20519;-82
2022/01/04 07:51:49;;;;;;;3.15;1.55;;;7.80;99.90;;;;;;5113756;28;20471;-82
2022/01/04 07:54:15;;;;;;;0.60;0.60;;;7.80;99.90;;;;;;5113772;28;20051;-82
2022/01/04 07:56:41;;;;;;;0.60;0.60;;;7.80;99.90;;;;;;5115043;28;20542;-84
2022/01/04 07:59:06;;;;;;;1.85;0.88;;;7.80;99.90;;;;;;5113678;28;20040;-84
2022/01/04 08:01:32;;;;;;;0.50;0.50;;;7.80;99.90;;;;;;5114556;28;20483;-84
2022/01/04 08:04:00;;;;;;;1.45;1.35;;;7.80;99.90;;;;;;5114439;28;20040;-84
2022/01/04 08:06:27;;;;;;;1.60;1.15;;;7.80;99.90;;;;;;5114066;28;20368;-84
2022/01/04 08:08:53;;;;;;;0.60;0.60;;;7.80;99.90;;;;;;5114945;28;20152;-84
2022/01/04 08:11:19;;;;;;;0.60;0.60;;;7.80;99.90;;;;;;5115232;28;20493;-84
2022/01/04 08:13:45;;;;;;;3.15;2.88;;;7.80;99.90;;;;;;5113107;28;20087;-83
2022/01/04 08:16:10;;;;;;;0.77;0.77;;;7.80;99.90;;;;;;5115046;28;20102;-84
2022/01/04 08:18:36;;;;;;;0.98;0.98;;;7.80;99.90;;;;;;5114873;28;20131;-83
2022/01/04 08:21:04;;;;;;;0.95;0.95;;;7.80;99.90;;;;;;5114782;28;20055;-84
2022/01/04 08:23:30;;;;;;;1.20;1.05;;;7.80;99.90;;;;;;5114686;28;20051;-84
2022/01/04 08:25:56;;;;;;;0.50;0.50;;;7.80;99.90;;;;;;5114962;28;20044;-84
2022/01/04 08:28:22;;;;;;;0.85;0.85;;;7.80;99.90;;;;;;5114579;28;20035;-84
2022/01/04 08:30:47;;;;;;;1.30;1.20;;;7.80;99.90;;;;;;5115071;28;20043;-84
2022/01/04 08:33:13;;;;;;;0.88;0.85;;;7.80;99.90;;;;;;5115140;28;20044;-84
2022/01/04 08:35:39;;;;;;;1.67;1.58;;;10.70;99.90;;;;;;5114468;28;20043;-84
2022/01/04 08:38:08;;;;;;;1.45;1.35;;;7.80;99.90;;;;;;5113679;28;20047;-83
2022/01/04 08:40:35;;;;;;;1.13;1.05;;;7.80;99.90;;;;;;5114656;28;20040;-83
2022/01/04 08:43:00;;;;;;;0.50;0.50;;;7.80;99.90;;;;;;5114465;28;20040;-83
2022/01/04 08:45:27;;;;;;;0.50;0.50;;;7.80;99.90;;;;;;5114611;28;20035;-83
2022/01/04 08:47:53;;;;;;;0.55;0.55;;;7.80;99.90;;;;;;5114503;28;20574;-84
2022/01/04 08:50:20;;;;;;;0.50;0.50;;;7.80;99.90;;;;;;5114452;28;20069;-83
2022/01/04 08:52:46;;;;;;;0.75;0.75;;;7.80;99.90;;;;;;5113396;28;20479;-84
2022/01/04 08:55:12;;;;;;;0.57;0.50;;;7.80;99.90;;;;;;5114434;28;20098;-84
2022/01/04 08:57:38;;;;;;;0.60;0.60;;;7.80;99.90;;;;;;5114230;28;20079;-84
2022/01/04 09:00:08;;;;;;;1.58;1.48;;;7.80;99.90;;;;;;5114715;28;20059;-84
2022/01/04 09:02:34;;;;;;;0.55;0.55;;;7.80;99.90;;;;;;5113217;28;20044;-83
2022/01/04 09:05:01;;;;;;;0.40;0.40;;;7.90;99.90;;;;;;5113394;28;20048;-84
2022/01/04 09:07:27;;;;;;;1.25;0.60;;;7.90;99.90;;;;;;5114417;28;20071;-84
2022/01/04 09:09:53;;;;;;;0.63;0.63;;;7.90;99.90;;;;;;5114363;28;20075;-83
2022/01/04 09:12:21;;;;;;;0.50;0.50;;;7.90;99.90;;;;;;5114030;28;20435;-84
2022/01/04 09:20:06;;;;;;;2.35;1.08;;;9.20;99.90;;;;;;5114101;28;20142;-84
2022/01/04 09:22:31;;;;;;;0.60;0.60;;;7.90;99.90;;;;;;5113981;28;20147;-84
2022/01/04 09:24:57;;;;;;;0.52;0.52;;;7.90;99.90;;;;;;5114344;28;20071;-83
2022/01/04 09:27:23;;;;;;;1.40;1.30;;;7.90;99.90;;;;;;5117965;28;20048;-83
2022/01/04 09:29:49;;;;;;;0.50;0.50;;;7.90;99.90;;;;;;5117178;28;20550;-83
2022/01/04 09:32:17;;;;;;;0.98;0.98;;;7.90;99.90;;;;;;5100323;28;20491;-83
2022/01/04 09:34:46;;;;;;;1.60;1.27;;;7.90;99.90;;;;;;5100113;28;20043;-82
2022/01/04 09:37:12;;;;;;;1.35;1.25;;;7.90;99.90;;;;;;5117909;28;20055;-83
2022/01/04 09:39:38;;;;;;;1.42;1.33;;;7.90;99.90;;;;;;5117959;28;20047;-83
2022/01/04 09:42:04;;;;;;;0.60;0.60;;;7.90;99.90;;;;;;5116993;28;20103;-83
2022/01/04 09:44:30;;;;;;;0.52;0.52;;;7.90;99.90;;;;;;5116634;28;20051;-83
2022/01/04 09:46:56;;;;;;;0.50;0.50;;;7.90;99.90;;;;;;5099953;28;20377;-83
2022/01/04 09:49:22;;;;;;;2.40;1.40;;;7.90;99.90;;;;;;5117965;28;20498;-84
2022/01/04 09:51:49;;;;;;;0.63;0.63;;;7.90;99.90;;;;;;5099616;28;20486;-85
2022/01/04 09:54:20;;;;;;;0.73;0.73;;;7.90;99.90;;;;;;5118437;27;20074;-86
2022/01/04 09:56:47;;;;;;;0.60;0.60;;;7.90;99.90;;;;;;5117376;28;20047;-84
2022/01/04 09:59:14;;;;;;;1.45;0.65;;;7.90;99.90;;;;;;5116759;28;20048;-81
2022/01/04 10:01:39;;;;;;;0.70;0.70;;;7.70;99.90;;;;;;5121899;27;20043;-86
2022/01/04 10:04:06;;;;;;;0.55;0.55;;;7.80;99.90;;;;;;5102795;28;20502;-83
2022/01/04 10:06:33;;;;;;;0.50;0.50;;;7.80;99.90;;;;;;5102559;28;20074;-88
2022/01/04 10:09:12;;;;;;;0.50;0.50;;;7.70;99.90;;;;;;5099185;28;20337;-84
2022/01/04 10:11:42;;;;;;;0.50;0.50;;;7.60;99.90;;;;;;5116567;28;20036;-88
2022/01/04 10:14:29;;;;;;;0.50;0.50;;;7.50;99.90;;;;;;5094269;28;20122;-85
2022/01/04 10:16:57;;;;;;;0.50;0.50;;;7.50;99.90;;;;;;5098775;28;20460;-83
2022/01/04 10:19:38;;;;;;;0.50;0.50;;;7.50;99.90;;;;;;5122986;27;20118;-82
2022/01/04 10:22:24;;;;;;;0.60;0.60;;;7.50;99.90;;;;;;5111306;28;20510;-85
2022/01/04 10:25:02;;;;;;;0.50;0.50;;;7.50;99.90;;;;;;5098496;28;20051;-85
2022/01/04 10:27:35;;;;;;;0.50;0.50;;;7.40;99.90;;;;;;5115857;28;20487;-83
2022/01/04 10:30:16;;;;;;;0.40;0.40;;;7.50;99.90;;;;;;5117348;28;20085;-83
2022/01/04 10:32:59;;;;;;;1.00;1.00;;;7.50;99.90;;;;;;5098779;28;20048;-84
2022/01/04 10:35:49;;;;;;;0.50;0.50;;;7.50;99.90;;;;;;5115866;28;20051;-82
2022/01/04 10:38:20;;;;;;;0.50;0.50;;;7.50;99.90;;;;;;5116112;28;20114;-83
2022/01/04 10:40:48;;;;;;;0.40;0.40;;;7.60;99.90;;;;;;5115488;28;20372;-84
2022/01/04 10:43:20;;;;;;;0.50;0.50;;;7.60;99.90;;;;;;5098738;28;20143;-84
2022/01/04 10:45:47;;;;;;;0.52;0.52;;;7.60;99.90;;;;;;5115661;28;20047;-84
2022/01/04 10:48:14;;;;;;;;;;;7.60;99.90;;;;;;5116648;28;20544;-84
2022/01/04 10:50:40;;;;;;;0.50;0.50;;;7.70;99.90;;;;;;5116191;28;20390;-81
2022/01/04 10:53:15;;;;;;;0.50;0.50;;;7.70;99.90;;;;;;5115272;28;20063;-82
2022/01/04 10:55:40;;;;;;;0.45;0.45;;;7.80;99.90;;;;;;5115602;28;20188;-82
2022/01/04 10:58:06;;;;;;;0.50;0.50;;;7.80;99.90;;;;;;5116629;28;20079;-82
2022/01/04 11:00:31;;;;;;;0.40;0.40;;;7.80;99.90;;;;;;5116207;28;20471;-84
2022/01/04 11:03:00;;;;;;;0.50;0.50;;;7.80;99.90;;;;;;5116297;28;20050;-81
2022/01/04 11:05:26;;;;;;;0.40;0.40;;;7.80;99.90;;;;;;5115474;28;20039;-80
2022/01/04 11:08:04;;;;;;;0.73;0.73;;;7.70;99.90;;;;;;5116216;28;20097;-82
2022/01/04 11:10:34;;;;;;;0.50;0.50;;;7.60;99.90;;;;;;5115917;28;20044;-82
2022/01/04 11:13:00;;;;;;;0.50;0.50;;;7.60;99.90;;;;;;5115191;28;20052;-85
2022/01/04 11:15:27;;;;;;;0.50;0.50;;;7.50;99.90;;;;;;5115265;28;20040;-85
2022/01/04 11:17:53;;;;;;;0.40;0.40;;;7.40;99.90;;;;;;5098333;28;20047;-85
2022/01/04 11:20:19;;;;;;;0.80;0.80;;;7.30;99.90;;;;;;5114729;28;20083;-84
2022/01/04 11:22:46;;;;;;;0.50;0.50;;;7.30;99.90;;;;;;5105886;27;20075;-80
2022/01/04 11:25:15;;;;;;;0.50;0.50;;;7.20;99.90;;;;;;5115837;28;20105;-84
2022/01/04 11:27:42;;;;;;;0.50;0.50;;;7.20;99.90;;;;;;5115868;28;20043;-81
2022/01/04 11:30:21;;;;;;;0.50;0.50;;;7.10;99.90;;;;;;5115686;28;20132;-83
2022/01/04 11:32:52;;;;;;;0.50;0.50;;;7.10;99.90;;;;;;5114562;28;20505;-86
2022/01/04 11:35:21;;;;;;;0.50;0.50;;;7.10;99.90;;;;;;5097200;28;20047;-84
2022/01/04 11:37:55;;;;;;;0.50;0.50;;;7.10;99.90;;;;;;5114516;28;20055;-83
2022/01/04 11:40:25;;;;;;;0.50;0.50;;;7.00;99.90;;;;;;5114391;28;20048;-84
2022/01/04 11:42:52;;;;;;;1.00;1.00;;;7.00;99.90;;;;;;5097257;28;20398;-83
2022/01/04 11:45:44;;;;;;;0.50;0.50;;;7.00;99.90;;;;;;5114410;28;20043;-81
2022/01/04 11:48:24;;;;;;;0.50;0.50;;;7.00;99.90;;;;;;5115196;28;20042;-82
2022/01/04 11:50:50;;;;;;;0.50;0.50;;;7.00;99.90;;;;;;5114439;28;20051;-81
2022/01/04 11:53:15;;;;;;;0.50;0.50;;;7.10;99.90;;;;;;5113899;28;20070;-83
2022/01/04 11:55:57;;;;;;;0.50;0.50;;;7.00;99.90;;;;;;5113812;28;20055;-84
2022/01/04 11:58:45;;;;;;;0.50;0.50;;;7.00;99.90;;;;;;5096701;28;20482;-80
2022/01/04 12:01:14;;;;;;;0.70;0.70;;;6.90;99.90;;;;;;5114124;28;20052;-82
2022/01/04 12:03:48;;;;;;;0.50;0.50;;;6.90;99.90;;;;;;5115749;28;20062;-83
2022/01/04 12:06:16;;;;;;;0.50;0.50;;;6.80;99.90;;;;;;5114205;28;20039;-80
2022/01/04 12:08:47;;;;;;;0.50;0.50;;;6.70;99.90;;;;;;5114316;28;20395;-83
2022/01/04 12:11:26;;;;;;;0.50;0.50;;;6.70;99.90;;;;;;5114029;28;20502;-86
2022/01/04 12:13:57;;;;;;;0.50;0.50;;;6.70;99.90;;;;;;5114860;28;20039;-83
2022/01/04 12:16:36;;;;;;;0.50;0.50;;;6.70;99.90;;;;;;5113360;28;20058;-83
2022/01/04 12:19:04;;;;;;;0.50;0.50;;;6.60;99.90;;;;;;5113448;28;20430;-83
2022/01/04 12:21:36;;;;;;;0.50;0.50;;;6.50;99.90;;;;;;5113844;28;20526;-82
2022/01/04 12:24:04;;;;;;;0.50;0.50;;;6.50;99.90;;;;;;5115055;28;20043;-84
2022/01/04 12:26:32;;;;;;;0.50;0.50;;;6.40;99.90;;;;;;5096838;28;20051;-82
2022/01/04 12:28:58;;;;;;;0.50;0.50;;;6.30;99.90;;;;;;5113686;28;20042;-83
2022/01/04 12:31:36;;;;;;;0.50;0.50;;;6.20;99.90;;;;;;5113730;28;20112;-82
2022/01/04 12:34:05;;;;;;;;;;;6.20;99.90;;;;;;5115081;28;20044;-83
2022/01/04 12:36:40;;;;;;;0.60;0.60;;;6.20;99.90;;;;;;5114465;28;19926;-82
2022/01/04 12:39:09;;;;;;;0.50;0.50;;;6.10;99.90;;;;;;5112891;28;20361;-83
2022/01/04 12:41:37;;;;;;;0.57;0.57;;;6.10;99.90;;;;;;5096116;28;20399;-83
2022/01/04 12:44:04;;;;;;;0.50;0.50;;;6.10;99.90;;;;;;5114342;28;20051;-83
2022/01/04 12:46:34;;;;;;;;;;;6.10;99.90;;;;;;5113562;28;20047;-83
2022/01/04 12:49:09;;;;;;;0.50;0.50;;;6.10;99.90;;;;;;5113006;28;20371;-82
2022/01/04 12:51:37;;;;;;;0.50;0.50;;;6.00;99.90;;;;;;5096317;28;20043;-83
2022/01/04 12:54:10;;;;;;;0.50;0.50;;;5.90;99.90;;;;;;5115120;28;20078;-83
2022/01/04 12:56:43;;;;;;;0.50;0.50;;;5.90;99.90;;;;;;5112563;28;20070;-86
2022/01/04 12:59:17;;;;;;;0.60;0.60;;;5.90;99.90;;;;;;5113269;28;20160;-83
2022/01/04 13:01:47;;;;;;;0.50;0.50;;;5.80;99.90;;;;;;5095751;28;20403;-86
2022/01/04 13:04:22;;;;;;;0.50;0.50;;;5.80;99.90;;;;;;5096278;28;20046;-84
2022/01/04 13:06:48;;;;;;;0.50;0.50;;;5.70;99.90;;;;;;5096137;28;20046;-87
2022/01/04 13:09:20;;;;;;;0.60;0.60;;;5.50;99.90;;;;;;5095710;28;20399;-83
2022/01/04 13:12:00;;;;;;;0.50;0.50;;;5.40;99.90;;;;;;5112911;28;20039;-86
2022/01/04 13:14:32;;;;;;;0.50;0.50;;;5.40;99.90;;;;;;5112978;28;20036;-85
2022/01/04 13:17:09;;;;;;;0.50;0.50;;;5.40;99.90;;;;;;5112658;28;20495;-83